createdAt,value
2023-03-16T00:00:26.042Z,0.78
2023-03-16T00:01:28.484Z,0.82
2023-03-16T00:02:30.790Z,0.92
2023-03-16T00:03:33.993Z,0.92
2023-03-16T00:04:37.625Z,0.83
2023-03-16T00:05:40.017Z,0.71
2023-03-16T00:06:42.245Z,0.48
2023-03-16T00:07:44.687Z,0.37
2023-03-16T00:08:46.858Z,0.29
2023-03-16T00:09:49.309Z,0.19
2023-03-16T00:10:53.962Z,0.29
2023-03-16T00:11:58.877Z,0.39
2023-03-16T00:13:02.623Z,0.47
2023-03-16T00:14:04.817Z,0.59
2023-03-16T00:15:07.582Z,0.62
2023-03-16T00:16:10.137Z,0.69
2023-03-16T00:17:18.811Z,0.75
2023-03-16T00:18:22.518Z,0.78
2023-03-16T00:19:25.007Z,0.75
2023-03-16T00:20:28.335Z,0.56
2023-03-16T00:21:32.022Z,0.54
2023-03-16T00:22:34.547Z,0.64
2023-03-16T00:23:36.814Z,0.41
2023-03-16T00:24:38.978Z,0.35
2023-03-16T00:25:41.898Z,0.35
2023-03-16T00:26:54.651Z,0.29
2023-03-16T00:27:57.181Z,0.44
2023-03-16T00:29:01.729Z,0.46
2023-03-16T00:30:04.740Z,0.57
2023-03-16T00:31:11.865Z,0.58
2023-03-16T00:32:16.976Z,0.55
2023-03-16T00:33:19.562Z,0.44
2023-03-16T00:34:23.267Z,0.28
2023-03-16T00:35:25.735Z,0.29
2023-03-16T00:36:28.329Z,0.32
2023-03-16T00:37:32.723Z,0.44
2023-03-16T00:38:40.408Z,0.50
2023-03-16T00:39:44.601Z,0.57
2023-03-16T00:40:51.287Z,0.63
2023-03-16T00:41:58.269Z,0.64
2023-03-16T00:43:00.747Z,0.67
2023-03-16T00:44:04.732Z,0.71
2023-03-16T00:45:07.832Z,0.68
2023-03-16T00:46:14.930Z,0.56
2023-03-16T00:47:18.675Z,0.39
2023-03-16T00:48:24.361Z,0.33
2023-03-16T00:49:26.590Z,0.31
2023-03-16T00:50:29.424Z,0.38
2023-03-16T00:51:33.878Z,0.43
2023-03-16T00:52:36.103Z,0.54
2023-03-16T00:53:39.917Z,0.52
2023-03-16T00:54:44.863Z,0.51
2023-03-16T00:55:47.119Z,0.45
2023-03-16T00:56:49.288Z,0.52
2023-03-16T00:57:51.499Z,0.58
2023-03-16T00:58:57.650Z,0.64
2023-03-16T01:00:01.629Z,0.63
2023-03-16T01:01:09.860Z,0.66
2023-03-16T01:02:12.786Z,0.65
2023-03-16T01:03:15.192Z,0.63
2023-03-16T01:04:19.055Z,0.65
2023-03-16T01:05:21.264Z,0.68
2023-03-16T01:06:23.504Z,0.71
2023-03-16T01:07:25.746Z,0.69
2023-03-16T01:08:28.068Z,0.65
2023-03-16T01:09:30.232Z,0.63
2023-03-16T01:10:34.484Z,0.60
2023-03-16T01:11:37.218Z,0.43
2023-03-16T01:12:41.298Z,0.29
2023-03-16T01:13:43.726Z,0.22
2023-03-16T01:14:47.618Z,0.23
2023-03-16T01:15:52.680Z,0.33
2023-03-16T01:16:54.965Z,0.44
2023-03-16T01:17:58.370Z,0.50
2023-03-16T01:19:01.275Z,0.50
2023-03-16T01:20:08.030Z,0.52
2023-03-16T01:21:13.695Z,0.57
2023-03-16T01:22:16.185Z,0.61
2023-03-16T01:23:18.907Z,0.62
2023-03-16T01:24:21.235Z,0.67
2023-03-16T01:25:24.168Z,0.69
2023-03-16T01:26:26.655Z,0.71
2023-03-16T01:27:28.943Z,0.60
2023-03-16T01:28:32.678Z,0.41
2023-03-16T01:29:35.205Z,0.39
2023-03-16T01:30:37.446Z,0.32
2023-03-16T01:31:39.811Z,0.33
2023-03-16T01:32:43.292Z,0.17
2023-03-16T01:33:48.406Z,0.09
2023-03-16T01:34:55.611Z,0.03
2023-03-16T01:36:04.753Z,0.05
2023-03-16T01:37:15.312Z,0.12
2023-03-16T01:38:26.427Z,0.19
2023-03-16T01:39:28.720Z,0.32
2023-03-16T01:40:31.515Z,0.28
2023-03-16T01:41:33.754Z,0.32
2023-03-16T01:42:49.020Z,0.28
2023-03-16T01:43:53.738Z,0.20
2023-03-16T01:45:01.560Z,0.02
2023-03-16T01:46:08.276Z,0.01
2023-03-16T01:47:16.261Z,-0.10
2023-03-16T01:48:22.668Z,-0.06
2023-03-16T01:49:32.896Z,-0.01
2023-03-16T01:50:35.850Z,-0.03
2023-03-16T01:51:59.920Z,0.10
2023-03-16T01:53:04.050Z,0.04
2023-03-16T01:54:42.890Z,-0.04
2023-03-16T01:55:46.532Z,-0.07
2023-03-16T01:56:55.185Z,-0.08
2023-03-16T01:57:57.705Z,-0.07
2023-03-16T01:59:02.192Z,-0.15
2023-03-16T02:00:12.096Z,-0.06
2023-03-16T02:01:17.656Z,-0.02
2023-03-16T02:02:23.163Z,0.01
2023-03-16T02:03:27.667Z,0.02
2023-03-16T02:04:45.316Z,0.16
2023-03-16T02:06:38.116Z,0.19
2023-03-16T02:07:45.228Z,0.18
2023-03-16T02:11:50.010Z,0.19
2023-03-16T02:12:53.263Z,0.11
2023-03-16T02:14:02.497Z,0.10
2023-03-16T02:15:05.143Z,-0.10
2023-03-16T02:16:13.425Z,-0.06
2023-03-16T02:17:20.080Z,-0.18
2023-03-16T02:18:23.033Z,-0.16
2023-03-16T02:20:05.912Z,-0.20
2023-03-16T02:21:33.861Z,-0.25
2023-03-16T02:22:42.202Z,-0.25
2023-03-16T02:23:45.812Z,-0.22
2023-03-16T02:24:49.695Z,-0.14
2023-03-16T02:26:12.081Z,-0.05
2023-03-16T02:27:22.933Z,-0.00
2023-03-16T02:28:50.993Z,0.01
2023-03-16T02:30:16.183Z,0.00
2023-03-16T02:31:31.739Z,0.13
2023-03-16T02:32:36.367Z,0.19
2023-03-16T02:33:40.012Z,0.20
2023-03-16T02:34:44.067Z,0.17
2023-03-16T02:35:48.336Z,0.19
2023-03-16T02:36:52.975Z,0.23
2023-03-16T02:37:59.592Z,0.32
2023-03-16T02:39:06.012Z,0.39
2023-03-16T02:40:22.325Z,0.57
2023-03-16T02:41:26.364Z,0.58
2023-03-16T02:42:32.944Z,0.64
2023-03-16T02:43:37.875Z,0.51
2023-03-16T02:44:57.943Z,0.34
2023-03-16T02:46:08.490Z,0.40
2023-03-16T02:47:19.356Z,0.35
2023-03-16T02:48:27.289Z,0.30
2023-03-16T02:49:42.251Z,0.10
2023-03-16T02:50:49.636Z,-0.03
2023-03-16T02:51:52.405Z,-0.05
2023-03-16T02:52:54.883Z,0.07
2023-03-16T02:53:57.127Z,0.06
2023-03-16T02:55:00.392Z,0.20
2023-03-16T02:56:03.397Z,0.21
2023-03-16T02:57:09.298Z,0.25
2023-03-16T02:58:12.910Z,0.21
2023-03-16T02:59:15.171Z,0.14
2023-03-16T03:02:11.826Z,-0.18
2023-03-16T03:03:14.382Z,-0.12
2023-03-16T03:04:17.254Z,-0.19
2023-03-16T03:05:20.303Z,-0.16
2023-03-16T03:06:24.766Z,-0.22
2023-03-16T03:07:31.692Z,-0.25
2023-03-16T03:08:38.545Z,-0.25
2023-03-16T03:09:44.615Z,-0.25
2023-03-16T03:10:47.090Z,-0.26
2023-03-16T03:11:50.507Z,-0.27
2023-03-16T03:12:53.017Z,-0.19
2023-03-16T03:13:56.439Z,-0.18
2023-03-16T03:15:01.677Z,-0.15
2023-03-16T03:16:12.777Z,-0.12
2023-03-16T03:17:15.187Z,-0.13
2023-03-16T03:18:18.426Z,-0.08
2023-03-16T03:19:20.817Z,-0.08
2023-03-16T03:20:23.082Z,-0.02
2023-03-16T03:21:25.648Z,-0.03
2023-03-16T03:22:28.314Z,0.05
2023-03-16T03:23:30.518Z,0.08
2023-03-16T03:24:34.069Z,0.05
2023-03-16T03:25:36.767Z,0.10
2023-03-16T03:26:39.315Z,0.06
2023-03-16T03:27:46.980Z,0.13
2023-03-16T03:28:52.618Z,0.15
2023-03-16T03:29:54.950Z,0.09
2023-03-16T03:30:57.322Z,-0.10
2023-03-16T03:32:00.309Z,-0.33
2023-03-16T03:33:03.044Z,-0.33
2023-03-16T03:34:06.714Z,-0.34
2023-03-16T03:35:13.162Z,-0.25
2023-03-16T03:36:15.702Z,-0.16
2023-03-16T03:37:20.049Z,-0.12
2023-03-16T03:38:22.416Z,-0.04
2023-03-16T03:39:25.100Z,-0.01
2023-03-16T03:40:28.214Z,0.03
2023-03-16T03:41:34.238Z,0.03
2023-03-16T03:42:39.164Z,0.06
2023-03-16T03:43:41.806Z,0.11
2023-03-16T03:44:52.858Z,0.15
2023-03-16T03:45:59.961Z,0.15
2023-03-16T03:47:02.327Z,0.24
2023-03-16T03:48:04.965Z,0.27
2023-03-16T03:49:10.234Z,0.25
2023-03-16T03:50:13.899Z,0.31
2023-03-16T03:51:41.121Z,0.29
2023-03-16T03:52:48.467Z,0.25
2023-03-16T03:53:51.297Z,0.20
2023-03-16T03:54:59.512Z,0.16
2023-03-16T03:56:01.834Z,0.21
2023-03-16T03:57:05.107Z,0.20
2023-03-16T03:58:07.568Z,0.21
2023-03-16T03:59:10.958Z,0.21
2023-03-16T04:00:31.795Z,0.19
2023-03-16T04:01:34.241Z,0.22
2023-03-16T04:02:36.919Z,0.23
2023-03-16T04:03:41.962Z,0.32
2023-03-16T04:04:45.145Z,0.33
2023-03-16T04:05:48.680Z,0.31
2023-03-16T04:06:51.553Z,0.34
2023-03-16T04:07:57.317Z,0.28
2023-03-16T04:08:59.667Z,0.23
2023-03-16T04:10:06.920Z,0.30
2023-03-16T04:11:14.450Z,0.21
2023-03-16T04:12:16.682Z,0.19
2023-03-16T04:13:19.498Z,0.23
2023-03-16T04:14:21.958Z,0.23
2023-03-16T04:15:24.898Z,0.20
2023-03-16T04:16:44.132Z,0.23
2023-03-16T04:17:49.260Z,0.21
2023-03-16T04:18:51.542Z,0.28
2023-03-16T04:19:53.829Z,0.24
2023-03-16T04:20:56.354Z,0.28
2023-03-16T04:22:00.316Z,0.29
2023-03-16T04:23:02.905Z,0.28
2023-03-16T04:24:06.386Z,0.14
2023-03-16T04:25:15.630Z,0.09
2023-03-16T04:26:19.451Z,0.01
2023-03-16T04:27:23.346Z,-0.10
2023-03-16T04:28:26.685Z,-0.12
2023-03-16T04:29:29.301Z,-0.04
2023-03-16T04:30:33.395Z,-0.00
2023-03-16T04:31:47.680Z,0.10
2023-03-16T04:32:52.412Z,0.16
2023-03-16T04:33:57.087Z,0.19
2023-03-16T04:34:59.746Z,0.21
2023-03-16T04:36:13.711Z,0.16
2023-03-16T04:37:16.565Z,0.17
2023-03-16T04:38:19.479Z,0.22
2023-03-16T04:39:29.197Z,0.18
2023-03-16T04:40:31.404Z,0.19
2023-03-16T04:41:46.708Z,0.30
2023-03-16T04:42:55.493Z,0.31
2023-03-16T04:43:58.954Z,0.30
2023-03-16T04:45:01.485Z,0.28
2023-03-16T04:46:05.940Z,0.24
2023-03-16T04:47:10.175Z,0.22
2023-03-16T04:48:14.951Z,0.21
2023-03-16T04:49:17.232Z,0.26
2023-03-16T04:50:20.930Z,0.25
2023-03-16T04:51:28.706Z,0.31
2023-03-16T04:52:40.300Z,0.24
2023-03-16T04:53:44.615Z,0.27
2023-03-16T04:54:54.967Z,0.33
2023-03-16T04:56:00.494Z,0.29
2023-03-16T04:57:03.783Z,0.23
2023-03-16T04:58:19.989Z,0.25
2023-03-16T04:59:25.476Z,0.30
2023-03-16T05:00:35.842Z,0.27
2023-03-16T05:01:55.558Z,0.29
2023-03-16T05:02:58.243Z,0.34
2023-03-16T05:04:00.548Z,0.34
2023-03-16T05:05:05.416Z,0.32
2023-03-16T05:06:08.585Z,0.30
2023-03-16T05:07:11.935Z,0.30
2023-03-16T05:08:17.676Z,0.26
2023-03-16T05:09:23.402Z,0.23
2023-03-16T05:10:25.875Z,0.24
2023-03-16T05:11:28.311Z,0.27
2023-03-16T05:12:34.253Z,0.28
2023-03-16T05:13:39.841Z,0.29
2023-03-16T05:14:42.118Z,0.31
2023-03-16T05:16:02.375Z,0.29
2023-03-16T05:17:09.250Z,0.32
2023-03-16T05:18:12.113Z,0.35
2023-03-16T05:19:14.408Z,0.33
2023-03-16T05:20:17.040Z,0.35
2023-03-16T05:21:27.453Z,0.45
2023-03-16T05:22:35.774Z,0.47
2023-03-16T05:23:52.115Z,0.39
2023-03-16T05:24:54.422Z,0.36
2023-03-16T05:25:59.758Z,0.33
2023-03-16T05:27:03.150Z,0.33
2023-03-16T05:28:05.684Z,0.33
2023-03-16T05:29:19.421Z,0.43
2023-03-16T05:30:21.833Z,0.48
2023-03-16T05:31:26.646Z,0.45
2023-03-16T05:32:33.017Z,0.51
2023-03-16T05:33:35.589Z,0.61
2023-03-16T05:34:43.200Z,0.65
2023-03-16T05:35:46.004Z,0.63
2023-03-16T05:36:49.345Z,0.61
2023-03-16T05:37:53.202Z,0.64
2023-03-16T05:38:56.665Z,0.67
2023-03-16T05:40:16.845Z,0.69
2023-03-16T05:41:22.880Z,0.65
2023-03-16T05:42:34.694Z,0.62
2023-03-16T05:43:37.918Z,0.70
2023-03-16T05:44:40.440Z,0.73
2023-03-16T05:45:49.242Z,0.75
2023-03-16T05:46:54.130Z,0.76
2023-03-16T05:47:56.582Z,0.82
2023-03-16T05:48:59.591Z,0.85
2023-03-16T05:50:01.875Z,0.87
2023-03-16T05:51:13.862Z,0.89
2023-03-16T05:52:17.098Z,0.91
2023-03-16T05:53:19.961Z,0.90
2023-03-16T05:54:23.203Z,0.90
2023-03-16T05:55:25.425Z,0.91
2023-03-16T05:56:33.441Z,1.00
2023-03-16T05:57:36.177Z,1.06
2023-03-16T05:58:38.513Z,1.14
2023-03-16T05:59:43.931Z,0.95
2023-03-16T06:00:47.761Z,0.95
2023-03-16T06:02:10.704Z,1.01
2023-03-16T06:03:13.088Z,1.21
2023-03-16T06:04:15.928Z,1.38
2023-03-16T06:05:19.990Z,1.60
2023-03-16T06:06:23.727Z,1.67
2023-03-16T06:07:32.991Z,1.40
2023-03-16T06:08:35.313Z,1.37
2023-03-16T06:09:44.663Z,1.30
2023-03-16T06:10:50.442Z,1.30
2023-03-16T06:11:54.070Z,1.22
2023-03-16T06:12:57.399Z,1.21
2023-03-16T06:14:01.050Z,1.28
2023-03-16T06:15:07.897Z,1.29
2023-03-16T06:16:14.565Z,1.23
2023-03-16T06:17:16.890Z,1.23
2023-03-16T06:18:19.142Z,1.14
2023-03-16T06:19:21.813Z,1.15
2023-03-16T06:20:29.369Z,1.24
2023-03-16T06:21:32.592Z,1.16
2023-03-16T06:22:42.275Z,1.27
2023-03-16T06:23:47.306Z,1.27
2023-03-16T06:24:50.865Z,1.26
2023-03-16T06:25:55.860Z,1.30
2023-03-16T06:27:00.802Z,1.36
2023-03-16T06:28:09.465Z,1.27
2023-03-16T06:29:11.815Z,1.43
2023-03-16T06:30:15.965Z,1.39
2023-03-16T06:31:19.264Z,1.35
2023-03-16T06:32:22.329Z,1.41
2023-03-16T06:33:25.472Z,1.37
2023-03-16T06:34:28.271Z,1.33
2023-03-16T06:35:31.803Z,1.44
2023-03-16T06:36:46.021Z,1.62
2023-03-16T06:37:48.961Z,1.70
2023-03-16T06:39:10.185Z,1.63
2023-03-16T06:40:17.888Z,1.67
2023-03-16T06:41:20.123Z,1.72
2023-03-16T06:42:23.904Z,1.59
2023-03-16T06:43:26.211Z,1.65
2023-03-16T06:44:28.527Z,1.81
2023-03-16T06:45:44.003Z,1.78
2023-03-16T06:46:46.718Z,1.99
2023-03-16T06:47:49.276Z,1.90
2023-03-16T06:48:51.771Z,1.97
2023-03-16T06:49:55.290Z,2.24
2023-03-16T06:51:01.361Z,2.14
2023-03-16T06:52:05.202Z,1.92
2023-03-16T06:53:07.526Z,2.07
2023-03-16T06:54:11.909Z,1.98
2023-03-16T06:55:15.677Z,2.06
2023-03-16T06:56:21.615Z,2.14
2023-03-16T06:57:25.162Z,2.28
2023-03-16T06:58:27.381Z,2.27
2023-03-16T06:59:29.882Z,2.32
2023-03-16T07:00:34.000Z,2.56
2023-03-16T07:01:36.487Z,2.72
2023-03-16T07:02:40.505Z,2.54
2023-03-16T07:03:43.785Z,2.67
2023-03-16T07:04:54.573Z,2.72
2023-03-16T07:05:57.119Z,2.60
2023-03-16T07:06:59.596Z,2.70
2023-03-16T07:08:04.262Z,2.57
2023-03-16T07:09:06.852Z,2.67
2023-03-16T07:10:15.925Z,2.55
2023-03-16T07:11:18.209Z,2.48
2023-03-16T07:12:20.439Z,2.65
2023-03-16T07:13:22.743Z,2.83
2023-03-16T07:14:26.265Z,2.71
2023-03-16T07:15:30.242Z,2.77
2023-03-16T07:16:33.508Z,2.88
2023-03-16T07:17:39.625Z,2.78
2023-03-16T07:18:44.386Z,2.74
2023-03-16T07:19:48.193Z,2.88
2023-03-16T07:20:50.650Z,2.74
2023-03-16T07:21:52.996Z,2.79
2023-03-16T07:22:57.601Z,2.97
2023-03-16T07:24:00.179Z,3.20
2023-03-16T07:25:07.312Z,3.02
2023-03-16T07:26:11.951Z,3.18
2023-03-16T07:27:25.005Z,3.41
2023-03-16T07:28:28.196Z,3.17
2023-03-16T07:29:34.072Z,3.20
2023-03-16T07:30:38.656Z,3.24
2023-03-16T07:31:41.039Z,3.21
2023-03-16T07:32:49.916Z,3.29
2023-03-16T07:33:57.473Z,3.26
2023-03-16T07:35:11.633Z,3.54
2023-03-16T07:36:14.332Z,3.55
2023-03-16T07:37:25.396Z,3.46
2023-03-16T07:38:32.369Z,3.58
2023-03-16T07:39:38.165Z,3.44
2023-03-16T07:40:54.273Z,3.39
2023-03-16T07:41:58.298Z,3.65
2023-03-16T07:43:26.897Z,3.64
2023-03-16T07:44:31.918Z,3.82
2023-03-16T07:45:34.616Z,4.07
2023-03-16T07:46:38.110Z,4.26
2023-03-16T07:47:40.596Z,3.99
2023-03-16T07:48:52.848Z,3.90
2023-03-16T07:49:54.988Z,3.89
2023-03-16T07:50:57.265Z,3.93
2023-03-16T07:52:00.274Z,4.21
2023-03-16T07:53:10.763Z,4.18
2023-03-16T07:54:15.487Z,4.27
2023-03-16T07:55:17.777Z,4.09
2023-03-16T07:56:21.652Z,3.97
2023-03-16T07:57:27.665Z,4.15
2023-03-16T07:58:30.362Z,4.37
2023-03-16T07:59:32.583Z,4.60
2023-03-16T08:00:36.320Z,4.89
2023-03-16T08:01:38.766Z,5.20
2023-03-16T08:02:41.943Z,5.21
2023-03-16T08:03:46.727Z,5.20
2023-03-16T08:04:49.101Z,4.92
2023-03-16T08:05:51.632Z,4.67
2023-03-16T08:07:00.112Z,5.08
2023-03-16T08:08:09.606Z,5.33
2023-03-16T08:09:13.353Z,5.40
2023-03-16T08:10:17.460Z,4.97
2023-03-16T08:11:26.778Z,5.05
2023-03-16T08:12:33.708Z,5.00
2023-03-16T08:13:36.570Z,5.10
2023-03-16T08:14:38.843Z,5.02
2023-03-16T08:15:58.867Z,5.26
2023-03-16T08:17:08.470Z,5.18
2023-03-16T08:18:12.471Z,5.49
2023-03-16T08:19:15.144Z,5.28
2023-03-16T08:20:19.036Z,5.32
2023-03-16T08:21:22.920Z,5.77
2023-03-16T08:22:25.640Z,5.68
2023-03-16T08:23:29.417Z,5.73
2023-03-16T08:24:32.595Z,5.57
2023-03-16T08:25:35.419Z,5.65
2023-03-16T08:26:45.407Z,5.87
2023-03-16T08:27:48.571Z,5.99
2023-03-16T08:28:52.465Z,5.50
2023-03-16T08:29:55.568Z,6.05
2023-03-16T08:31:00.905Z,5.90
2023-03-16T08:32:25.822Z,6.11
2023-03-16T08:33:28.086Z,6.33
2023-03-16T08:34:31.809Z,6.32
2023-03-16T08:35:34.230Z,6.40
2023-03-16T08:36:37.614Z,6.37
2023-03-16T08:37:41.436Z,6.06
2023-03-16T08:38:50.894Z,6.13
2023-03-16T08:40:04.360Z,6.57
2023-03-16T08:41:07.025Z,7.09
2023-03-16T08:42:10.707Z,7.01
2023-03-16T08:43:20.090Z,6.72
2023-03-16T08:44:24.379Z,6.52
2023-03-16T08:45:26.986Z,6.52
2023-03-16T08:46:30.775Z,6.71
2023-03-16T08:47:35.227Z,7.05
2023-03-16T08:48:37.469Z,6.81
2023-03-16T08:49:39.795Z,7.10
2023-03-16T08:50:46.947Z,7.10
2023-03-16T08:51:49.626Z,7.08
2023-03-16T08:52:51.843Z,7.08
2023-03-16T08:53:54.524Z,7.18
2023-03-16T08:55:03.325Z,7.21
2023-03-16T08:56:09.447Z,7.04
2023-03-16T08:57:12.251Z,7.08
2023-03-16T08:58:15.398Z,7.28
2023-03-16T08:59:29.069Z,7.19
2023-03-16T09:00:31.914Z,6.97
2023-03-16T09:01:34.661Z,6.92
2023-03-16T09:02:38.499Z,6.92
2023-03-16T09:03:42.196Z,7.30
2023-03-16T09:04:45.906Z,7.18
2023-03-16T09:05:49.357Z,7.14
2023-03-16T09:07:05.936Z,6.96
2023-03-16T09:08:10.485Z,6.78
2023-03-16T09:09:12.741Z,7.26
2023-03-16T09:10:16.222Z,7.49
2023-03-16T09:11:19.724Z,7.32
2023-03-16T09:12:22.373Z,7.08
2023-03-16T09:13:24.656Z,7.68
2023-03-16T09:14:27.155Z,8.16
2023-03-16T09:15:29.694Z,7.63
2023-03-16T09:16:32.056Z,7.46
2023-03-16T09:17:34.667Z,7.99
2023-03-16T09:18:36.953Z,7.98
2023-03-16T09:19:57.714Z,8.09
2023-03-16T09:21:04.720Z,8.46
2023-03-16T09:22:06.968Z,8.39
2023-03-16T09:23:09.257Z,8.35
2023-03-16T09:24:11.720Z,8.27
2023-03-16T09:25:14.481Z,7.92
2023-03-16T09:26:16.803Z,8.06
2023-03-16T09:27:20.462Z,8.14
2023-03-16T09:28:22.994Z,8.03
2023-03-16T09:29:25.339Z,7.73
2023-03-16T09:30:28.281Z,7.82
2023-03-16T09:31:30.723Z,8.42
2023-03-16T09:32:34.004Z,8.38
2023-03-16T09:33:36.266Z,8.07
2023-03-16T09:34:39.213Z,8.53
2023-03-16T09:35:42.674Z,8.24
2023-03-16T09:36:45.061Z,8.02
2023-03-16T09:38:04.842Z,7.82
2023-03-16T09:39:08.861Z,7.54
2023-03-16T09:40:30.822Z,8.03
2023-03-16T09:41:51.389Z,8.07
2023-03-16T09:43:19.084Z,8.09
2023-03-16T09:44:37.370Z,8.26
2023-03-16T09:45:53.062Z,7.89
2023-03-16T09:46:58.674Z,8.39
2023-03-16T09:48:04.584Z,8.15
2023-03-16T09:49:10.217Z,8.40
2023-03-16T09:50:32.390Z,8.31
2023-03-16T09:52:18.433Z,8.50
2023-03-16T09:53:33.122Z,8.61
2023-03-16T09:54:59.784Z,8.72
2023-03-16T09:56:11.282Z,8.82
2023-03-16T09:57:36.078Z,8.81
2023-03-16T09:58:38.464Z,8.91
2023-03-16T09:59:40.731Z,8.88
2023-03-16T10:01:20.247Z,8.83
2023-03-16T10:02:47.075Z,8.44
2023-03-16T10:04:02.070Z,8.76
2023-03-16T10:05:23.765Z,8.59
2023-03-16T10:06:26.939Z,8.53
2023-03-16T10:07:41.232Z,8.94
2023-03-16T10:08:54.226Z,9.38
2023-03-16T10:10:02.028Z,9.75
2023-03-16T10:11:54.145Z,9.74
2023-03-16T10:13:00.791Z,9.54
2023-03-16T10:14:09.452Z,9.35
2023-03-16T10:15:19.419Z,9.25
2023-03-16T10:16:30.742Z,9.18
2023-03-16T10:17:41.570Z,9.70
2023-03-16T10:18:47.915Z,9.69
2023-03-16T10:19:54.350Z,9.60
2023-03-16T10:20:58.420Z,9.70
2023-03-16T10:22:09.719Z,9.52
2023-03-16T10:23:22.885Z,9.71
2023-03-16T10:24:48.551Z,10.22
2023-03-16T10:25:56.323Z,10.40
2023-03-16T10:27:02.211Z,9.90
2023-03-16T10:28:04.725Z,9.62
2023-03-16T10:29:12.859Z,9.30
2023-03-16T10:30:27.942Z,9.63
2023-03-16T10:31:30.509Z,10.18
2023-03-16T10:32:35.642Z,10.68
2023-03-16T10:33:39.530Z,9.97
2023-03-16T10:34:45.250Z,10.05
2023-03-16T10:35:52.132Z,9.79
2023-03-16T10:36:55.091Z,10.19
2023-03-16T10:37:58.611Z,9.74
2023-03-16T10:39:10.432Z,10.18
2023-03-16T10:40:12.948Z,9.95
2023-03-16T10:41:18.015Z,9.84
2023-03-16T10:42:21.331Z,9.81
2023-03-16T10:43:24.369Z,10.08
2023-03-16T10:44:29.838Z,10.02
2023-03-16T10:45:35.448Z,10.14
2023-03-16T10:46:48.476Z,9.67
2023-03-16T10:47:51.109Z,10.08
2023-03-16T10:48:59.740Z,10.55
2023-03-16T10:50:14.306Z,10.24
2023-03-16T10:51:20.881Z,10.65
2023-03-16T10:52:37.879Z,10.50
2023-03-16T10:53:44.128Z,9.84
2023-03-16T10:55:11.344Z,10.02
2023-03-16T10:56:25.152Z,10.62
2023-03-16T10:57:33.975Z,10.36
2023-03-16T10:58:42.049Z,9.99
2023-03-16T10:59:49.819Z,10.31
2023-03-16T11:00:53.466Z,10.31
2023-03-16T11:01:57.019Z,10.58
2023-03-16T11:02:59.829Z,10.71
2023-03-16T11:04:02.536Z,10.27
2023-03-16T11:05:31.339Z,9.91
2023-03-16T11:06:33.865Z,10.27
2023-03-16T11:07:36.464Z,10.11
2023-03-16T11:08:39.897Z,10.16
2023-03-16T11:09:45.376Z,10.42
2023-03-16T11:10:57.574Z,10.51
2023-03-16T11:12:12.060Z,10.42
2023-03-16T11:13:17.554Z,10.28
2023-03-16T11:14:23.366Z,10.47
2023-03-16T11:15:26.645Z,10.54
2023-03-16T11:16:43.836Z,10.60
2023-03-16T11:17:51.344Z,10.88
2023-03-16T11:19:27.326Z,11.15
2023-03-16T11:20:33.236Z,10.69
2023-03-16T11:21:55.214Z,10.45
2023-03-16T11:22:59.403Z,10.54
2023-03-16T11:24:04.478Z,10.55
2023-03-16T11:25:15.643Z,10.96
2023-03-16T11:26:33.553Z,11.40
2023-03-16T11:27:43.899Z,11.29
2023-03-16T11:28:51.817Z,11.19
2023-03-16T11:30:09.738Z,11.46
2023-03-16T11:31:19.993Z,11.46
2023-03-16T11:32:29.645Z,11.45
2023-03-16T11:33:32.031Z,11.32
2023-03-16T11:34:35.192Z,11.37
2023-03-16T11:35:57.971Z,11.25
2023-03-16T11:37:23.553Z,11.33
2023-03-16T11:38:40.188Z,11.11
2023-03-16T11:40:09.637Z,11.08
2023-03-16T11:41:20.245Z,11.01
2023-03-16T11:42:39.425Z,10.95
2023-03-16T11:44:16.331Z,10.79
2023-03-16T11:45:28.151Z,10.93
2023-03-16T11:46:49.235Z,11.24
2023-03-16T11:47:51.471Z,10.98
2023-03-16T11:49:12.105Z,11.00
2023-03-16T11:50:55.905Z,11.26
2023-03-16T11:52:26.483Z,11.13
2023-03-16T11:53:59.150Z,11.20
2023-03-16T11:55:07.810Z,11.05
2023-03-16T11:56:37.247Z,10.93
2023-03-16T11:58:17.132Z,11.24
2023-03-16T12:00:01.551Z,11.06
2023-03-16T12:01:24.662Z,11.78
2023-03-16T12:02:55.425Z,11.56
2023-03-16T12:04:13.017Z,11.45
2023-03-16T12:05:24.844Z,11.26
2023-03-16T12:06:41.818Z,11.28
2023-03-16T12:08:16.972Z,11.46
2023-03-16T12:09:54.403Z,11.43
2023-03-16T12:11:02.734Z,11.58
2023-03-16T12:12:29.483Z,11.81
2023-03-16T12:14:08.917Z,11.73
2023-03-16T12:15:21.384Z,11.92
2023-03-16T12:16:33.205Z,12.32
2023-03-16T12:17:44.002Z,12.29
2023-03-16T12:18:54.524Z,12.31
2023-03-16T12:20:05.615Z,11.83
2023-03-16T12:21:36.524Z,11.39
2023-03-16T12:22:44.347Z,11.45
2023-03-16T12:24:16.062Z,11.47
2023-03-16T12:25:25.541Z,10.91
2023-03-16T12:26:32.573Z,10.92
2023-03-16T12:27:38.801Z,11.31
2023-03-16T12:28:42.618Z,11.30
2023-03-16T12:29:57.181Z,11.66
2023-03-16T12:31:12.085Z,11.16
2023-03-16T12:32:35.536Z,10.96
2023-03-16T12:34:05.586Z,11.21
2023-03-16T12:35:22.328Z,11.52
2023-03-16T12:36:48.803Z,11.22
2023-03-16T12:38:19.138Z,11.12
2023-03-16T12:39:30.405Z,11.14
2023-03-16T12:40:46.418Z,11.39
2023-03-16T12:42:21.412Z,11.36
2023-03-16T12:43:42.680Z,11.24
2023-03-16T12:44:49.059Z,11.14
2023-03-16T12:46:09.751Z,11.36
2023-03-16T12:47:19.735Z,11.54
2023-03-16T12:48:32.299Z,11.55
2023-03-16T12:49:36.831Z,11.48
2023-03-16T12:50:54.555Z,11.35
2023-03-16T12:52:11.086Z,11.76
2023-03-16T12:53:30.435Z,11.70
2023-03-16T12:54:33.501Z,11.87
2023-03-16T12:55:35.753Z,11.59
2023-03-16T12:56:46.856Z,11.69
2023-03-16T12:57:51.605Z,11.86
2023-03-16T12:58:57.025Z,11.62
2023-03-16T13:00:01.179Z,11.65
2023-03-16T13:01:11.266Z,11.41
2023-03-16T13:02:26.259Z,11.15
2023-03-16T13:03:29.575Z,11.18
2023-03-16T13:04:35.396Z,11.29
2023-03-16T13:05:44.229Z,11.33
2023-03-16T13:06:50.472Z,11.73
2023-03-16T13:08:12.205Z,11.91
2023-03-16T13:09:20.221Z,11.76
2023-03-16T13:10:22.674Z,11.55
2023-03-16T13:11:25.441Z,11.55
2023-03-16T13:12:41.560Z,11.72
2023-03-16T13:14:02.722Z,11.48
2023-03-16T13:15:26.773Z,11.78
2023-03-16T13:16:33.118Z,11.98
2023-03-16T13:17:37.832Z,12.14
2023-03-16T13:18:45.249Z,12.33
2023-03-16T13:20:07.992Z,12.55
2023-03-16T13:21:23.003Z,12.86
2023-03-16T13:22:44.196Z,12.75
2023-03-16T13:23:54.542Z,12.54
2023-03-16T13:25:13.991Z,12.67
2023-03-16T13:26:22.822Z,12.69
2023-03-16T13:27:30.855Z,12.64
2023-03-16T13:28:37.666Z,12.78
2023-03-16T13:29:39.995Z,12.88
2023-03-16T13:30:49.261Z,12.90
2023-03-16T13:31:53.538Z,12.58
2023-03-16T13:33:01.129Z,12.43
2023-03-16T13:34:07.518Z,12.33
2023-03-16T13:35:15.410Z,12.33
2023-03-16T13:36:18.236Z,12.35
2023-03-16T13:37:21.782Z,12.40
2023-03-16T13:38:27.496Z,12.28
2023-03-16T13:39:32.105Z,12.23
2023-03-16T13:40:37.903Z,12.00
2023-03-16T13:41:42.875Z,11.97
2023-03-16T13:42:53.018Z,12.07
2023-03-16T13:43:55.869Z,12.18
2023-03-16T13:44:59.664Z,12.32
2023-03-16T13:46:02.262Z,12.31
2023-03-16T13:47:05.768Z,12.04
2023-03-16T13:48:12.375Z,12.03
2023-03-16T13:49:15.316Z,11.89
2023-03-16T13:50:18.840Z,12.23
2023-03-16T13:51:22.721Z,12.28
2023-03-16T13:52:35.636Z,12.32
2023-03-16T13:53:40.713Z,12.07
2023-03-16T13:54:43.096Z,12.05
2023-03-16T13:55:47.293Z,12.30
2023-03-16T13:56:52.190Z,12.58
2023-03-16T13:57:54.484Z,12.29
2023-03-16T13:58:58.527Z,12.05
2023-03-16T14:00:15.720Z,11.80
2023-03-16T14:01:27.413Z,12.11
2023-03-16T14:02:29.677Z,12.03
2023-03-16T14:03:35.932Z,12.07
2023-03-16T14:04:38.286Z,11.98
2023-03-16T14:05:40.904Z,12.02
2023-03-16T14:06:56.062Z,12.19
2023-03-16T14:08:00.848Z,12.13
2023-03-16T14:09:06.341Z,11.95
2023-03-16T14:10:15.418Z,12.19
2023-03-16T14:11:17.701Z,12.23
2023-03-16T14:12:20.178Z,12.20
2023-03-16T14:13:28.146Z,12.23
2023-03-16T14:14:36.929Z,12.06
2023-03-16T14:15:39.328Z,12.02
2023-03-16T14:16:42.459Z,12.00
2023-03-16T14:17:44.833Z,11.83
2023-03-16T14:18:52.012Z,11.73
2023-03-16T14:19:59.983Z,11.86
2023-03-16T14:21:09.833Z,12.04
2023-03-16T14:22:23.419Z,12.14
2023-03-16T14:23:36.392Z,12.24
2023-03-16T14:24:40.570Z,12.24
2023-03-16T14:25:43.053Z,12.18
2023-03-16T14:26:47.945Z,11.99
2023-03-16T14:27:57.644Z,11.90
2023-03-16T14:29:24.961Z,11.81
2023-03-16T14:30:30.252Z,12.07
2023-03-16T14:31:40.944Z,11.89
2023-03-16T14:32:58.577Z,12.03
2023-03-16T14:34:08.656Z,12.12
2023-03-16T14:35:15.939Z,12.00
2023-03-16T14:36:19.593Z,12.10
2023-03-16T14:37:22.065Z,12.05
2023-03-16T14:38:36.944Z,12.22
2023-03-16T14:39:42.846Z,12.44
2023-03-16T14:40:54.084Z,12.56
2023-03-16T14:41:56.410Z,12.56
2023-03-16T14:43:04.711Z,12.65
2023-03-16T14:44:19.343Z,12.45
2023-03-16T14:45:21.977Z,12.35
2023-03-16T14:46:27.783Z,12.09
2023-03-16T14:47:33.464Z,12.01
2023-03-16T14:48:36.191Z,12.10
2023-03-16T14:49:40.925Z,12.10
2023-03-16T14:50:44.828Z,12.22
2023-03-16T14:51:49.405Z,12.20
2023-03-16T14:52:55.087Z,12.34
2023-03-16T14:53:57.335Z,12.42
2023-03-16T14:55:03.511Z,12.49